Time;durP1;ratioP1;P1;durP2;ratioP2;P2;SDS_P1;SDS_P2;PMS_P1;PMS_P2;Temp;Humidity;BMP_temperature;BMP_pressure;BME280_temperature;BME280_humidity;BME280_pressure;Samples;Min_cycle;Max_cycle;Signal;HPM_P1;HPM_P2
2023/07/18 00:01:48;;;;;;;1999.90;999.90;;;15.20;99.90;;;;;;4807377;29;20092;-69
2023/07/18 00:04:13;;;;;;;1999.90;999.90;;;15.10;99.90;;;;;;4806755;29;20055;-69
2023/07/18 00:06:41;;;;;;;1999.90;999.90;;;15.10;99.90;;;;;;4807310;29;20133;-69
2023/07/18 00:09:07;;;;;;;1999.90;999.90;;;15.10;99.90;;;;;;4807291;29;20383;-69
2023/07/18 00:11:33;;;;;;;1999.90;999.90;;;15.10;99.90;;;;;;4791486;29;20061;-69
2023/07/18 00:13:59;;;;;;;1999.90;999.90;;;15.10;99.90;;;;;;4821205;29;20054;-69
2023/07/18 00:16:25;;;;;;;1999.90;999.90;;;15.10;99.90;;;;;;4807172;29;20062;-69
2023/07/18 00:18:51;;;;;;;1999.90;999.90;;;15.00;99.90;;;;;;4805587;29;20104;-69
2023/07/18 00:21:16;;;;;;;1999.90;999.90;;;15.00;99.90;;;;;;4805961;29;20107;-68
2023/07/18 00:23:42;;;;;;;1999.90;999.90;;;15.00;99.90;;;;;;4806120;29;20062;-69
2023/07/18 00:26:08;;;;;;;1999.90;999.90;;;15.00;99.90;;;;;;4805791;29;20537;-69
2023/07/18 00:28:34;;;;;;;1999.90;999.90;;;14.90;99.90;;;;;;4807572;29;20046;-69
2023/07/18 00:31:01;;;;;;;1999.90;999.90;;;14.90;99.90;;;;;;4807116;29;20051;-69
2023/07/18 00:33:27;;;;;;;1999.90;999.90;;;14.90;99.90;;;;;;4805919;29;20061;-69
2023/07/18 00:35:53;;;;;;;1999.90;999.90;;;14.90;99.90;;;;;;4821108;29;20051;-69
2023/07/18 00:38:20;;;;;;;1999.90;999.90;;;14.90;99.90;;;;;;4806805;29;20050;-69
2023/07/18 00:40:48;;;;;;;1999.90;999.90;;;14.80;99.90;;;;;;4805580;29;20090;-69
2023/07/18 00:43:15;;;;;;;1999.90;999.90;;;14.80;99.90;;;;;;4806662;29;20055;-70
2023/07/18 00:45:42;;;;;;;1999.90;999.90;;;14.80;99.90;;;;;;4806044;29;20054;-70
2023/07/18 00:48:09;;;;;;;1999.90;999.90;;;14.80;99.90;;;;;;4806232;29;20473;-69
2023/07/18 00:50:35;;;;;;;1999.90;999.90;;;14.80;99.90;;;;;;4805664;29;20051;-70
2023/07/18 00:53:02;;;;;;;1999.90;999.90;;;14.80;99.90;;;;;;4806618;29;20102;-69
2023/07/18 00:55:28;;;;;;;1999.90;999.90;;;14.80;99.90;;;;;;4805496;29;20097;-69
2023/07/18 00:57:55;;;;;;;1999.90;999.90;;;14.80;99.90;;;;;;4806368;29;20050;-69
2023/07/18 01:00:22;;;;;;;1999.90;999.90;;;14.80;99.90;;;;;;4806517;29;20149;-68
2023/07/18 01:02:49;;;;;;;1999.90;999.90;;;14.80;99.90;;;;;;4805649;29;20500;-69
2023/07/18 01:05:17;;;;;;;1999.90;999.90;;;14.80;99.90;;;;;;4806553;29;20054;-69
2023/07/18 01:07:43;;;;;;;1999.90;999.90;;;14.80;99.90;;;;;;4806513;29;20062;-70
2023/07/18 01:10:17;;;;;;;1999.90;999.90;;;14.70;99.90;;;;;;4805552;29;20058;-70
2023/07/18 01:12:44;;;;;;;1999.90;999.90;;;14.70;99.90;;;;;;4805433;29;20090;-69
2023/07/18 01:15:12;;;;;;;1999.90;999.90;;;14.70;99.90;;;;;;4806362;29;20047;-70
2023/07/18 01:17:48;;;;;;;1999.90;999.90;;;14.70;99.90;;;;;;4806361;29;20126;-70
2023/07/18 01:20:20;;;;;;;1999.90;999.90;;;14.80;99.90;;;;;;4806359;29;20140;-70
2023/07/18 01:22:56;;;;;;;1999.90;999.90;;;14.70;99.90;;;;;;4806384;29;20075;-70
2023/07/18 01:25:22;;;;;;;1999.90;999.90;;;14.70;99.90;;;;;;4807386;29;20055;-69
2023/07/18 01:27:50;;;;;;;1999.90;999.90;;;14.70;99.90;;;;;;4809651;29;20047;-69
2023/07/18 01:30:19;;;;;;;1999.90;999.90;;;14.70;99.90;;;;;;4809991;29;20183;-69
2023/07/18 01:32:48;;;;;;;1999.90;999.90;;;14.70;99.90;;;;;;4809953;29;20062;-70
2023/07/18 01:35:15;;;;;;;1999.90;999.90;;;14.70;99.90;;;;;;4794229;29;20065;-69
2023/07/18 01:37:44;;;;;;;1999.90;999.90;;;14.70;99.90;;;;;;4809872;29;20062;-70
2023/07/18 01:40:15;;;;;;;1999.90;999.90;;;14.70;99.90;;;;;;4810331;29;20051;-70
2023/07/18 01:42:45;;;;;;;1999.90;999.90;;;14.70;99.90;;;;;;4793829;29;20054;-70
2023/07/18 01:45:10;;;;;;;1999.90;999.90;;;14.70;99.90;;;;;;4809720;29;20403;-70
2023/07/18 01:47:40;;;;;;;1999.90;999.90;;;14.70;99.90;;;;;;4808979;29;20049;-69
2023/07/18 01:50:07;;;;;;;1999.90;999.90;;;14.70;99.90;;;;;;4794399;29;20059;-70
2023/07/18 01:52:34;;;;;;;1999.90;999.90;;;14.70;99.90;;;;;;4810374;29;20057;-70
2023/07/18 01:55:01;;;;;;;1999.90;999.90;;;14.70;99.90;;;;;;4810352;29;20062;-70
2023/07/18 01:57:30;;;;;;;1999.90;999.90;;;14.70;99.90;;;;;;4823412;29;20058;-70
2023/07/18 01:59:57;;;;;;;1999.90;999.90;;;14.70;99.90;;;;;;4809373;29;20054;-70
2023/07/18 02:02:23;;;;;;;1999.90;999.90;;;14.70;99.90;;;;;;4809098;29;20055;-70
2023/07/18 02:04:49;;;;;;;1999.90;999.90;;;14.70;99.90;;;;;;4809913;29;20054;-70
2023/07/18 02:07:15;;;;;;;1999.90;999.90;;;14.70;99.90;;;;;;4809419;29;20062;-70
2023/07/18 02:09:41;;;;;;;1999.90;999.90;;;14.70;99.90;;;;;;4808616;29;20400;-70
2023/07/18 02:12:08;;;;;;;1999.90;999.90;;;14.60;99.90;;;;;;4808110;29;20059;-70
2023/07/18 02:14:37;;;;;;;1999.90;999.90;;;14.70;99.90;;;;;;4809145;29;20138;-70
2023/07/18 02:17:05;;;;;;;1999.90;999.90;;;14.60;99.90;;;;;;4809153;29;20051;-70
2023/07/18 02:19:31;;;;;;;1999.90;999.90;;;14.60;99.90;;;;;;4792996;29;20046;-70
2023/07/18 02:21:56;;;;;;;1999.90;999.90;;;14.60;99.90;;;;;;4809175;29;20054;-70
2023/07/18 02:24:22;;;;;;;1999.90;999.90;;;14.60;99.90;;;;;;4809151;29;20083;-70
2023/07/18 02:26:48;;;;;;;1999.90;999.90;;;14.60;99.90;;;;;;4809319;29;20057;-70
2023/07/18 02:29:15;;;;;;;1999.90;999.90;;;14.60;99.90;;;;;;4808053;29;20062;-70
2023/07/18 02:31:42;;;;;;;1999.90;999.90;;;14.60;99.90;;;;;;4808985;29;20058;-70
2023/07/18 02:34:07;;;;;;;1999.90;999.90;;;14.60;99.90;;;;;;4808891;29;20058;-70
2023/07/18 02:36:33;;;;;;;1999.90;999.90;;;14.60;99.90;;;;;;4809145;29;20047;-70
2023/07/18 02:38:59;;;;;;;1999.90;999.90;;;14.50;99.90;;;;;;4808760;29;20404;-70
2023/07/18 02:41:25;;;;;;;1999.90;999.90;;;14.50;99.90;;;;;;4808859;29;20051;-70
2023/07/18 02:43:51;;;;;;;1999.90;999.90;;;14.50;99.90;;;;;;4808730;29;20046;-71
2023/07/18 02:46:17;;;;;;;1999.90;999.90;;;14.50;99.90;;;;;;4808954;29;20492;-70
2023/07/18 02:48:43;;;;;;;1999.90;999.90;;;14.50;99.90;;;;;;4808663;29;20059;-71
2023/07/18 02:51:08;;;;;;;1999.90;999.90;;;14.50;99.90;;;;;;4808914;29;20062;-70
2023/07/18 02:53:34;;;;;;;1999.90;999.90;;;14.50;99.90;;;;;;4807740;29;20116;-70
2023/07/18 02:56:00;;;;;;;1999.90;999.90;;;14.50;99.90;;;;;;4808557;29;20055;-70
2023/07/18 02:58:25;;;;;;;1999.90;999.90;;;14.50;99.90;;;;;;4807595;29;20057;-70
2023/07/18 03:00:51;;;;;;;1999.90;999.90;;;14.50;99.90;;;;;;4808378;29;20051;-71
2023/07/18 03:03:17;;;;;;;1999.90;999.90;;;14.50;99.90;;;;;;4807821;29;20086;-70
2023/07/18 03:05:43;;;;;;;1999.90;999.90;;;14.50;99.90;;;;;;4807457;29;20058;-70
2023/07/18 03:08:08;;;;;;;1999.90;999.90;;;14.40;99.90;;;;;;4808882;29;20092;-70
2023/07/18 03:10:36;;;;;;;1999.90;999.90;;;14.40;99.90;;;;;;4807456;29;20058;-70
2023/07/18 03:13:02;;;;;;;1999.90;999.90;;;14.40;99.90;;;;;;4807141;29;20050;-70
2023/07/18 03:15:28;;;;;;;1999.90;999.90;;;14.40;99.90;;;;;;4808101;29;20107;-70
2023/07/18 03:17:53;;;;;;;1999.90;999.90;;;14.40;99.90;;;;;;4807497;29;20092;-70
2023/07/18 03:20:19;;;;;;;1999.90;999.90;;;14.40;99.90;;;;;;4822034;29;20452;-70
2023/07/18 03:22:46;;;;;;;1999.90;999.90;;;14.40;99.90;;;;;;4808145;29;20062;-70
2023/07/18 03:25:13;;;;;;;1999.90;999.90;;;14.40;99.90;;;;;;4807368;29;20047;-70
2023/07/18 03:27:39;;;;;;;1999.90;999.90;;;14.40;99.90;;;;;;4808503;29;20042;-70
2023/07/18 03:30:06;;;;;;;1999.90;999.90;;;14.40;99.90;;;;;;4807079;29;20443;-69
2023/07/18 03:32:33;;;;;;;1999.90;999.90;;;14.30;99.90;;;;;;4808016;29;20157;-70
2023/07/18 03:34:59;;;;;;;1999.90;999.90;;;14.30;99.90;;;;;;4807980;29;20058;-70
2023/07/18 03:37:28;;;;;;;1999.90;999.90;;;14.30;99.90;;;;;;4806936;29;20377;-70
2023/07/18 03:39:53;;;;;;;1999.90;999.90;;;14.30;99.90;;;;;;4806671;29;20057;-70
2023/07/18 03:42:20;;;;;;;1999.90;999.90;;;14.30;99.90;;;;;;4822180;29;20172;-70
2023/07/18 03:44:46;;;;;;;1999.90;999.90;;;14.20;99.90;;;;;;4806366;29;20054;-70
2023/07/18 03:47:12;;;;;;;1999.90;999.90;;;14.30;99.90;;;;;;4808146;29;20130;-70
2023/07/18 03:49:37;;;;;;;1999.90;999.90;;;14.30;99.90;;;;;;4805989;29;20047;-70
2023/07/18 03:52:04;;;;;;;1999.90;999.90;;;14.30;99.90;;;;;;4807590;29;20046;-70
2023/07/18 03:54:31;;;;;;;1999.90;999.90;;;14.30;99.90;;;;;;4791610;29;20094;-70
2023/07/18 03:56:57;;;;;;;1999.90;999.90;;;14.30;99.90;;;;;;4808327;29;20117;-70
2023/07/18 03:59:22;;;;;;;1999.90;999.90;;;14.30;99.90;;;;;;4822395;29;20090;-70
2023/07/18 04:01:48;;;;;;;1999.90;999.90;;;14.30;99.90;;;;;;4807712;29;20084;-70
2023/07/18 04:04:15;;;;;;;1999.90;999.90;;;14.30;99.90;;;;;;4806374;29;20051;-70
2023/07/18 04:06:43;;;;;;;1999.90;999.90;;;14.20;99.90;;;;;;4806480;29;20055;-70
2023/07/18 04:09:10;;;;;;;1999.90;999.90;;;14.20;99.90;;;;;;4806354;29;20058;-70
2023/07/18 04:11:35;;;;;;;1999.90;999.90;;;14.20;99.90;;;;;;4807287;29;20400;-69
2023/07/18 04:14:01;;;;;;;1999.90;999.90;;;14.20;99.90;;;;;;4806963;29;20054;-70
2023/07/18 04:16:27;;;;;;;1999.90;999.90;;;14.20;99.90;;;;;;4806442;29;20050;-69
2023/07/18 04:18:53;;;;;;;1999.90;999.90;;;14.20;99.90;;;;;;4807382;29;20054;-70
2023/07/18 04:21:18;;;;;;;1999.90;999.90;;;14.10;99.90;;;;;;4806099;29;20433;-70
2023/07/18 04:23:44;;;;;;;1999.90;999.90;;;14.20;99.90;;;;;;4821934;29;20054;-70
2023/07/18 04:26:12;;;;;;;1999.90;999.90;;;14.20;99.90;;;;;;4806094;29;20083;-70
2023/07/18 04:28:39;;;;;;;1999.90;999.90;;;14.10;99.90;;;;;;4806980;29;20133;-70
2023/07/18 04:31:05;;;;;;;1999.90;999.90;;;14.10;99.90;;;;;;4806337;29;20057;-70
2023/07/18 04:33:36;;;;;;;1999.90;999.90;;;14.10;99.90;;;;;;4805784;29;20054;-70
2023/07/18 04:36:04;;;;;;;1999.90;999.90;;;14.20;99.90;;;;;;4806899;29;20055;-70
2023/07/18 04:38:30;;;;;;;1999.90;999.90;;;14.20;99.90;;;;;;4807079;29;20057;-71
2023/07/18 04:40:56;;;;;;;1999.90;999.90;;;14.20;99.90;;;;;;4807007;29;20392;-70
2023/07/18 04:43:22;;;;;;;1999.90;999.90;;;14.20;99.90;;;;;;4806879;29;20046;-70
2023/07/18 04:45:48;;;;;;;1999.90;999.90;;;14.20;99.90;;;;;;4805793;29;20047;-70
2023/07/18 04:48:15;;;;;;;1999.90;999.90;;;14.20;99.90;;;;;;4805509;29;20126;-70
2023/07/18 04:50:42;;;;;;;1999.90;999.90;;;14.20;99.90;;;;;;4806767;29;20121;-70
2023/07/18 04:53:09;;;;;;;1999.90;999.90;;;14.20;99.90;;;;;;4806479;29;20058;-70
2023/07/18 04:55:35;;;;;;;1999.90;999.90;;;14.30;99.90;;;;;;4806695;29;20111;-70
2023/07/18 04:58:03;;;;;;;1999.90;999.90;;;14.30;99.90;;;;;;4807654;29;20380;-70
2023/07/18 05:00:29;;;;;;;1999.90;999.90;;;14.30;99.90;;;;;;4806353;29;20108;-70
2023/07/18 05:02:55;;;;;;;1999.90;999.90;;;14.30;99.90;;;;;;4806602;29;20134;-70
2023/07/18 05:05:21;;;;;;;1999.90;999.90;;;14.40;99.90;;;;;;4806543;29;20090;-70
2023/07/18 05:07:47;;;;;;;1999.90;999.90;;;14.40;99.90;;;;;;4806472;29;20062;-69
2023/07/18 05:10:13;;;;;;;1999.90;999.90;;;14.40;99.90;;;;;;4790444;29;20105;-69
2023/07/18 05:12:40;;;;;;;1999.90;999.90;;;14.50;99.90;;;;;;4805349;29;20055;-70
2023/07/18 05:15:06;;;;;;;1999.90;999.90;;;14.50;99.90;;;;;;4790495;29;20110;-70
2023/07/18 05:17:32;;;;;;;1999.90;999.90;;;14.50;99.90;;;;;;4806411;29;20058;-69
2023/07/18 05:19:57;;;;;;;1999.90;999.90;;;14.50;99.90;;;;;;4806319;29;20051;-69
2023/07/18 05:22:23;;;;;;;1999.90;999.90;;;14.50;99.90;;;;;;4806346;29;20058;-70
2023/07/18 05:24:49;;;;;;;1999.90;999.90;;;14.60;99.90;;;;;;4806404;29;20065;-70
2023/07/18 05:27:14;;;;;;;1999.90;999.90;;;14.60;99.90;;;;;;4790405;29;20086;-70
2023/07/18 05:29:40;;;;;;;1999.90;999.90;;;14.60;99.90;;;;;;4805381;29;20514;-70
2023/07/18 05:32:06;;;;;;;1999.90;999.90;;;14.60;99.90;;;;;;4820727;29;20055;-70
2023/07/18 05:34:33;;;;;;;1999.90;999.90;;;14.70;99.90;;;;;;4806128;29;20163;-70
2023/07/18 05:37:00;;;;;;;1999.90;999.90;;;14.70;99.90;;;;;;4806243;29;20110;-70
2023/07/18 05:39:28;;;;;;;1999.90;999.90;;;14.70;99.90;;;;;;4806400;29;20162;-69
2023/07/18 05:41:54;;;;;;;1999.90;999.90;;;14.70;99.90;;;;;;4806728;29;20412;-69
2023/07/18 05:44:20;;;;;;;1999.90;999.90;;;14.70;99.90;;;;;;4790244;29;20058;-69
2023/07/18 05:46:46;;;;;;;1999.90;999.90;;;14.70;99.90;;;;;;4806162;29;20054;-70
2023/07/18 05:49:11;;;;;;;1999.90;999.90;;;14.70;99.90;;;;;;4805040;29;20075;-69
2023/07/18 05:51:37;;;;;;;1999.90;999.90;;;14.70;99.90;;;;;;4806068;29;20445;-70
2023/07/18 05:54:04;;;;;;;1999.90;999.90;;;14.80;99.90;;;;;;4789821;29;20058;-70
2023/07/18 05:56:31;;;;;;;1999.90;999.90;;;14.80;99.90;;;;;;4806235;29;20155;-70
2023/07/18 05:58:57;;;;;;;1999.90;999.90;;;14.90;99.90;;;;;;4804973;29;20062;-70
2023/07/18 06:01:23;;;;;;;1999.90;999.90;;;14.90;99.90;;;;;;4805838;29;20153;-70
2023/07/18 06:03:49;;;;;;;1999.90;999.90;;;15.00;99.90;;;;;;4806041;29;20143;-70
2023/07/18 06:06:15;;;;;;;1999.90;999.90;;;15.00;99.90;;;;;;4805990;29;20081;-70
2023/07/18 06:08:41;;;;;;;1999.90;999.90;;;15.10;99.90;;;;;;4806018;29;20103;-69
2023/07/18 06:11:07;;;;;;;1999.90;999.90;;;15.10;99.90;;;;;;4805016;29;20055;-69
2023/07/18 06:13:33;;;;;;;1999.90;999.90;;;15.10;99.90;;;;;;4810007;29;20062;-69
2023/07/18 06:15:58;;;;;;;1999.90;999.90;;;15.20;99.90;;;;;;4809407;29;20473;-70
2023/07/18 06:18:24;;;;;;;1999.90;999.90;;;15.20;99.90;;;;;;4809736;29;20460;-70
2023/07/18 06:20:50;;;;;;;1999.90;999.90;;;15.30;99.90;;;;;;4808002;29;20051;-70
2023/07/18 06:23:16;;;;;;;1999.90;999.90;;;15.40;99.90;;;;;;4809114;29;20129;-69
2023/07/18 06:25:42;;;;;;;1999.90;999.90;;;15.50;99.90;;;;;;4807946;29;20130;-68
2023/07/18 06:28:07;;;;;;;1999.90;999.90;;;15.60;99.90;;;;;;4809293;29;20090;-69
2023/07/18 06:30:33;;;;;;;1999.90;999.90;;;15.60;99.90;;;;;;4808070;29;20515;-69
2023/07/18 06:32:59;;;;;;;1999.90;999.90;;;15.70;99.90;;;;;;4808984;29;20143;-69
2023/07/18 06:35:25;;;;;;;1999.90;999.90;;;15.70;99.90;;;;;;4808975;29;20046;-69
2023/07/18 06:37:51;;;;;;;1999.90;999.90;;;15.80;99.90;;;;;;4809438;29;20047;-69
2023/07/18 06:40:17;;;;;;;1999.90;999.90;;;15.80;99.90;;;;;;4808781;29;20054;-68
2023/07/18 06:42:43;;;;;;;1999.90;999.90;;;16.00;99.90;;;;;;4808803;29;20051;-69
2023/07/18 06:45:09;;;;;;;1999.90;999.90;;;16.00;99.90;;;;;;4809435;29;20125;-69
2023/07/18 06:47:35;;;;;;;1999.90;999.90;;;16.00;99.90;;;;;;4808918;29;20054;-69
2023/07/18 06:50:01;;;;;;;1999.90;999.90;;;16.10;99.90;;;;;;4807725;29;20396;-69
2023/07/18 06:52:27;;;;;;;1999.90;999.90;;;16.10;99.90;;;;;;4809336;29;20051;-69
2023/07/18 06:54:56;;;;;;;1999.90;999.90;;;16.10;99.90;;;;;;4807387;29;20054;-69
2023/07/18 06:57:21;;;;;;;1999.90;999.90;;;16.20;99.90;;;;;;4808703;29;20120;-69
2023/07/18 06:59:47;;;;;;;1999.90;999.90;;;16.30;99.90;;;;;;4808599;29;20050;-69
2023/07/18 07:02:13;;;;;;;1999.90;999.90;;;16.30;99.90;;;;;;4792636;29;20059;-69
2023/07/18 07:04:39;;;;;;;1999.90;999.90;;;16.40;99.90;;;;;;4808604;29;20055;-69
2023/07/18 07:07:08;;;;;;;1999.90;999.90;;;16.40;99.90;;;;;;4808615;29;20051;-69
2023/07/18 07:09:34;;;;;;;1999.90;999.90;;;16.40;99.90;;;;;;4808487;29;20078;-69
2023/07/18 07:12:01;;;;;;;1999.90;999.90;;;16.50;99.90;;;;;;4808498;29;20069;-69
2023/07/18 07:14:26;;;;;;;1999.90;999.90;;;16.50;99.90;;;;;;4808397;29;20053;-69
2023/07/18 07:16:53;;;;;;;1999.90;999.90;;;16.60;99.90;;;;;;4807472;29;20050;-69
2023/07/18 07:19:19;;;;;;;1999.90;999.90;;;16.60;99.90;;;;;;4808291;29;20054;-69
2023/07/18 07:21:45;;;;;;;1999.90;999.90;;;16.70;99.90;;;;;;4809087;29;20054;-70
2023/07/18 07:24:11;;;;;;;1999.90;999.90;;;16.70;99.90;;;;;;4807025;29;20370;-70
2023/07/18 07:26:37;;;;;;;1999.90;999.90;;;16.80;99.90;;;;;;4808202;29;20139;-71
2023/07/18 07:29:05;;;;;;;1999.90;999.90;;;16.80;99.90;;;;;;4822614;29;20133;-70
2023/07/18 07:31:31;;;;;;;1999.90;999.90;;;16.90;99.90;;;;;;4807155;29;20051;-70
2023/07/18 07:33:57;;;;;;;1999.90;999.90;;;16.90;99.90;;;;;;4806958;29;20054;-70
2023/07/18 07:36:23;;;;;;;1999.90;999.90;;;16.90;99.90;;;;;;4806788;29;20131;-69
2023/07/18 07:38:49;;;;;;;1999.90;999.90;;;17.00;99.90;;;;;;4807998;29;20050;-70
2023/07/18 07:41:15;;;;;;;1999.90;999.90;;;17.10;99.90;;;;;;4807938;29;20054;-69
2023/07/18 07:43:41;;;;;;;1999.90;999.90;;;17.20;99.90;;;;;;4806710;29;20057;-69
2023/07/18 07:46:07;;;;;;;1999.90;999.90;;;17.30;99.90;;;;;;4808235;29;20050;-69
2023/07/18 07:48:33;;;;;;;1999.90;999.90;;;17.40;99.90;;;;;;4806877;29;20453;-69
2023/07/18 07:51:00;;;;;;;1999.90;999.90;;;17.50;99.90;;;;;;4808512;29;20047;-69
2023/07/18 07:53:26;;;;;;;1999.90;999.90;;;17.50;99.90;;;;;;4807204;29;20446;-69
2023/07/18 07:55:52;;;;;;;1999.90;999.90;;;17.60;99.90;;;;;;4821178;29;20059;-69
2023/07/18 07:58:18;;;;;;;1999.90;999.90;;;17.60;99.90;;;;;;4807652;29;20116;-69
2023/07/18 08:00:43;;;;;;;1999.90;999.90;;;17.60;99.90;;;;;;4807712;29;20050;-69
2023/07/18 08:03:09;;;;;;;1999.90;999.90;;;17.70;99.90;;;;;;4807554;29;20408;-69
2023/07/18 08:05:35;;;;;;;1999.90;999.90;;;17.80;99.90;;;;;;4807697;29;20058;-69
2023/07/18 08:08:01;;;;;;;1999.90;999.90;;;17.80;99.90;;;;;;4791482;29;20051;-69
2023/07/18 08:10:27;;;;;;;1999.90;999.90;;;17.90;99.90;;;;;;4806468;29;20145;-69
2023/07/18 08:12:53;;;;;;;1999.90;999.90;;;18.00;99.90;;;;;;4821468;29;20154;-68
2023/07/18 08:15:19;;;;;;;1999.90;999.90;;;18.00;99.90;;;;;;4806070;29;20055;-68
2023/07/18 08:17:45;;;;;;;1999.90;999.90;;;18.00;99.90;;;;;;4806321;29;20062;-69
2023/07/18 08:20:12;;;;;;;1999.90;999.90;;;18.10;99.90;;;;;;4807823;29;20057;-69
2023/07/18 08:22:39;;;;;;;1999.90;999.90;;;18.10;99.90;;;;;;4807621;29;20054;-69
2023/07/18 08:25:05;;;;;;;1999.90;999.90;;;18.20;99.90;;;;;;4805971;29;20051;-69
2023/07/18 08:27:31;;;;;;;1999.90;999.90;;;18.30;99.90;;;;;;4807503;29;20054;-70
2023/07/18 08:29:57;;;;;;;1999.90;999.90;;;18.30;99.90;;;;;;4806867;29;20051;-70
2023/07/18 08:32:22;;;;;;;1999.90;999.90;;;18.30;99.90;;;;;;4806318;29;20054;-69
2023/07/18 08:34:48;;;;;;;1999.90;999.90;;;18.30;99.90;;;;;;4806881;29;20057;-69
2023/07/18 08:37:14;;;;;;;1999.90;999.90;;;18.30;99.90;;;;;;4807057;29;20058;-69
2023/07/18 08:39:40;;;;;;;1999.90;999.90;;;18.40;99.90;;;;;;4807204;29;20472;-69
2023/07/18 08:42:06;;;;;;;1999.90;999.90;;;18.40;99.90;;;;;;4805887;29;20488;-69
2023/07/18 08:44:35;;;;;;;1999.90;999.90;;;18.50;99.90;;;;;;4805691;29;20055;-69
2023/07/18 08:47:03;;;;;;;1999.90;999.90;;;18.50;99.90;;;;;;4805991;29;20134;-69
2023/07/18 08:49:30;;;;;;;1999.90;999.90;;;18.60;99.90;;;;;;4805986;29;20055;-69
2023/07/18 08:51:56;;;;;;;1999.90;999.90;;;18.60;99.90;;;;;;4790643;29;20058;-69
2023/07/18 08:54:22;;;;;;;1999.90;999.90;;;18.70;99.90;;;;;;4805656;29;20055;-69
2023/07/18 08:56:48;;;;;;;1999.90;999.90;;;18.70;99.90;;;;;;4806752;29;20515;-69
2023/07/18 08:59:15;;;;;;;1999.90;999.90;;;18.70;99.90;;;;;;4806691;29;20050;-69
2023/07/18 09:01:48;;;;;;;1999.90;999.90;;;18.70;99.90;;;;;;4806734;29;20050;-69
2023/07/18 09:04:14;;;;;;;1999.90;999.90;;;18.80;99.90;;;;;;4806117;29;20055;-69
2023/07/18 09:06:54;;;;;;;1999.90;999.90;;;18.80;99.90;;;;;;4806609;29;20090;-69
2023/07/18 09:09:23;;;;;;;1999.90;999.90;;;18.90;99.90;;;;;;4805649;29;20047;-69
2023/07/18 09:11:55;;;;;;;1999.90;999.90;;;18.90;99.90;;;;;;4806871;29;20134;-69
2023/07/18 09:14:26;;;;;;;1999.90;999.90;;;19.00;99.90;;;;;;4807058;29;20389;-69
2023/07/18 09:16:56;;;;;;;1999.90;999.90;;;19.00;99.90;;;;;;4805858;29;20055;-69
2023/07/18 09:19:48;;;;;;;1999.90;999.90;;;19.10;99.90;;;;;;4806382;29;20054;-68
2023/07/18 09:22:17;;;;;;;1999.90;999.90;;;19.10;99.90;;;;;;4806430;29;20055;-69
2023/07/18 09:24:44;;;;;;;1999.90;999.90;;;19.20;99.90;;;;;;4806563;29;20050;-68
2023/07/18 09:27:15;;;;;;;1999.90;999.90;;;19.20;99.90;;;;;;4805813;29;20090;-69
2023/07/18 09:29:45;;;;;;;1999.90;999.90;;;19.30;99.90;;;;;;4805603;29;20058;-68
2023/07/18 09:32:18;;;;;;;1999.90;999.90;;;19.30;99.90;;;;;;4806458;29;20093;-69
2023/07/18 09:35:01;;;;;;;1999.90;999.90;;;19.40;99.90;;;;;;4805854;29;20072;-69
2023/07/18 09:37:27;;;;;;;1999.90;999.90;;;19.50;99.90;;;;;;4804980;29;20412;-69
2023/07/18 09:39:54;;;;;;;1999.90;999.90;;;19.50;99.90;;;;;;4805030;29;20055;-68
2023/07/18 09:42:23;;;;;;;1999.90;999.90;;;19.60;99.90;;;;;;4805541;29;20106;-69
2023/07/18 09:44:50;;;;;;;1999.90;999.90;;;19.60;99.90;;;;;;4820159;29;20047;-69
2023/07/18 09:47:17;;;;;;;1999.90;999.90;;;19.60;99.90;;;;;;4808005;29;20065;-69
2023/07/18 09:49:43;;;;;;;1999.90;999.90;;;19.60;99.90;;;;;;4809492;29;20073;-69
2023/07/18 09:52:10;;;;;;;1999.90;999.90;;;19.60;99.90;;;;;;4809067;29;20492;-69
2023/07/18 09:54:36;;;;;;;1999.90;999.90;;;19.60;99.90;;;;;;4809420;29;20047;-69
2023/07/18 09:57:10;;;;;;;1999.90;999.90;;;19.50;99.90;;;;;;4808722;29;20063;-69
2023/07/18 09:59:37;;;;;;;1999.90;999.90;;;19.50;99.90;;;;;;4809303;29;20090;-69
2023/07/18 10:02:04;;;;;;;1999.90;999.90;;;19.50;99.90;;;;;;4808565;29;20067;-69
2023/07/18 10:04:32;;;;;;;1999.90;999.90;;;19.50;99.90;;;;;;4809287;29;20086;-69
2023/07/18 10:06:58;;;;;;;1999.90;999.90;;;19.50;99.90;;;;;;4809440;29;20058;-69
2023/07/18 10:09:27;;;;;;;1999.90;999.90;;;19.50;99.90;;;;;;4809357;29;20049;-69
2023/07/18 10:12:00;;;;;;;1999.90;999.90;;;19.50;99.90;;;;;;4809912;29;20058;-69
2023/07/18 10:14:29;;;;;;;1999.90;999.90;;;19.50;99.90;;;;;;4809229;29;20058;-69
2023/07/18 10:16:55;;;;;;;1999.90;999.90;;;19.50;99.90;;;;;;4809302;29;20093;-69
2023/07/18 10:19:24;;;;;;;1999.90;999.90;;;19.40;99.90;;;;;;4809870;29;20082;-69
2023/07/18 10:21:53;;;;;;;1999.90;999.90;;;19.40;99.90;;;;;;4809338;29;20050;-68
2023/07/18 10:24:23;;;;;;;1999.90;999.90;;;19.40;99.90;;;;;;4809155;29;20051;-69
2023/07/18 10:26:52;;;;;;;1999.90;999.90;;;19.40;99.90;;;;;;4808201;29;20103;-69
2023/07/18 10:29:18;;;;;;;1999.90;999.90;;;19.40;99.90;;;;;;4809051;29;20101;-69
2023/07/18 10:31:44;;;;;;;1999.90;999.90;;;19.40;99.90;;;;;;4809072;29;20054;-68
2023/07/18 10:34:13;;;;;;;1999.90;999.90;;;19.40;99.90;;;;;;4809185;29;20055;-69
2023/07/18 10:36:40;;;;;;;1999.90;999.90;;;19.40;99.90;;;;;;4810482;29;20495;-68
2023/07/18 10:39:13;;;;;;;1999.90;999.90;;;19.40;99.90;;;;;;4811153;29;20073;-69
2023/07/18 10:41:43;;;;;;;1999.90;999.90;;;19.50;99.90;;;;;;4810282;29;20153;-69
2023/07/18 10:44:13;;;;;;;1999.90;999.90;;;19.50;99.90;;;;;;4809061;29;20133;-69
2023/07/18 10:46:39;;;;;;;1999.90;999.90;;;19.50;99.90;;;;;;4808078;29;20054;-69
2023/07/18 10:49:06;;;;;;;1999.90;999.90;;;19.50;99.90;;;;;;4807775;29;20051;-69
2023/07/18 10:51:33;;;;;;;1999.90;999.90;;;19.50;99.90;;;;;;4808364;29;20407;-69
2023/07/18 10:53:59;;;;;;;1999.90;999.90;;;19.60;99.90;;;;;;4808583;29;20503;-69
2023/07/18 10:56:25;;;;;;;1999.90;999.90;;;19.70;99.90;;;;;;4808766;29;20098;-69
2023/07/18 10:58:51;;;;;;;1999.90;999.90;;;19.70;99.90;;;;;;4807298;29;20476;-69
2023/07/18 11:01:18;;;;;;;1999.90;999.90;;;19.80;99.90;;;;;;4808043;29;20061;-69
2023/07/18 11:03:47;;;;;;;1999.90;999.90;;;19.80;99.90;;;;;;4792430;29;20579;-69
2023/07/18 11:06:16;;;;;;;1999.90;999.90;;;19.90;99.90;;;;;;4808434;29;20061;-70
2023/07/18 11:08:45;;;;;;;1999.90;999.90;;;20.00;99.90;;;;;;4808415;29;20066;-70
2023/07/18 11:11:11;;;;;;;1999.90;999.90;;;20.00;99.90;;;;;;4807549;29;20146;-69
2023/07/18 11:13:39;;;;;;;1999.90;999.90;;;20.10;99.90;;;;;;4808381;29;20129;-70
2023/07/18 11:16:14;;;;;;;1999.90;999.90;;;20.10;99.90;;;;;;4807523;29;20386;-69
2023/07/18 11:18:48;;;;;;;1999.90;999.90;;;20.20;99.90;;;;;;4808150;29;20088;-69
2023/07/18 11:21:17;;;;;;;1999.90;999.90;;;20.30;99.90;;;;;;4808226;29;20069;-69
2023/07/18 11:23:43;;;;;;;1999.90;999.90;;;20.30;99.90;;;;;;4808107;29;20058;-70
2023/07/18 11:26:12;;;;;;;1999.90;999.90;;;20.30;99.90;;;;;;4807771;29;20503;-70
2023/07/18 11:28:38;;;;;;;1999.90;999.90;;;20.30;99.90;;;;;;4807974;29;20062;-69
2023/07/18 11:31:03;;;;;;;1999.90;999.90;;;20.30;99.90;;;;;;4808690;29;20050;-69
2023/07/18 11:33:31;;;;;;;1999.90;999.90;;;20.30;99.90;;;;;;4806879;29;20523;-70
2023/07/18 11:35:57;;;;;;;1999.90;999.90;;;20.30;99.90;;;;;;4807878;29;20054;-69
2023/07/18 11:38:28;;;;;;;1999.90;999.90;;;20.30;99.90;;;;;;4807848;29;20054;-69
2023/07/18 11:40:54;;;;;;;1999.90;999.90;;;20.20;99.90;;;;;;4807822;29;20051;-69
2023/07/18 11:43:20;;;;;;;1999.90;999.90;;;20.20;99.90;;;;;;4807831;29;20381;-69
2023/07/18 11:45:46;;;;;;;1999.90;999.90;;;20.20;99.90;;;;;;4806768;29;20506;-70
2023/07/18 11:48:15;;;;;;;1999.90;999.90;;;20.10;99.90;;;;;;4807710;29;20051;-69
2023/07/18 11:50:45;;;;;;;1999.90;999.90;;;20.10;99.90;;;;;;4806953;29;20050;-70
2023/07/18 11:53:11;;;;;;;1999.90;999.90;;;20.20;99.90;;;;;;4791288;29;20543;-69
2023/07/18 11:55:37;;;;;;;1999.90;999.90;;;20.20;99.90;;;;;;4807833;29;20098;-71
2023/07/18 11:58:09;;;;;;;1999.90;999.90;;;20.20;99.90;;;;;;4806899;29;20090;-70